East Calder, United Kingdom
Current Conditions -  °F | °C
As of 3:50 PM on Thursday 23 Oct 2014 (Local Time) from EGPH Reporting Station
Broken Clouds Broken Clouds  
Wind Chill: 57°   Ceiling: 2200
Heat Index: 57°   Visibility: 6mi
Dew Point: 52°   Wind: 17mph
Humidity: 82%   Direction: 220°SW
Pressure: 29.71"   Gusts: NA
Location:  55.89°N, 3.46°W
Report Text: EGPH 231450Z 22015KT 9999 BKN022 14/11 Q1006
Loading
Personal Weather Stations






























Interactive Weather Map New forecast layout! Learn more

10-Day Weather Forecast

Advertisements
Track Severe Weather on mobile